createdAt,value
2018-12-06T00:00:27.898Z,27.30
2018-12-06T00:02:56.993Z,24.87
2018-12-06T00:05:25.256Z,22.57
2018-12-06T00:08:17.704Z,24.07
2018-12-06T00:10:46.024Z,19.93
2018-12-06T00:13:14.357Z,28.37
2018-12-06T00:15:42.644Z,20.53
2018-12-06T00:18:10.956Z,28.37
2018-12-06T00:20:39.229Z,25.27
2018-12-06T00:23:07.582Z,28.30
2018-12-06T00:25:35.828Z,26.87
2018-12-06T00:28:04.518Z,23.00
2018-12-06T00:30:38.387Z,20.27
2018-12-06T00:33:06.733Z,30.37
2018-12-06T00:35:36.155Z,28.37
2018-12-06T00:38:05.215Z,28.77
2018-12-06T00:40:33.605Z,29.60
2018-12-06T00:43:01.876Z,22.03
2018-12-06T00:45:30.195Z,24.27
2018-12-06T00:47:58.525Z,27.70
2018-12-06T00:50:26.807Z,26.60
2018-12-06T00:52:55.185Z,26.33
2018-12-06T00:55:23.470Z,21.17
2018-12-06T00:57:51.718Z,29.27
2018-12-06T01:00:20.016Z,29.03
2018-12-06T01:02:48.288Z,25.87
2018-12-06T01:05:16.587Z,22.20
2018-12-06T01:07:44.851Z,29.33
2018-12-06T01:12:55.110Z,24.00
2018-12-06T01:15:23.497Z,31.17
2018-12-06T01:17:51.852Z,23.90
2018-12-06T01:23:01.740Z,31.40
2018-12-06T01:25:29.997Z,36.30
2018-12-06T01:27:58.288Z,36.90
2018-12-06T01:30:26.577Z,28.80
2018-12-06T01:32:54.860Z,29.90
2018-12-06T01:35:23.123Z,28.27
2018-12-06T01:37:51.400Z,25.00
2018-12-06T01:40:19.677Z,26.67
2018-12-06T01:42:47.945Z,29.83
2018-12-06T01:45:16.348Z,29.77
2018-12-06T01:47:44.610Z,30.13
2018-12-06T01:50:12.956Z,33.27
2018-12-06T01:52:41.270Z,28.17
2018-12-06T01:55:09.641Z,26.80
2018-12-06T01:57:37.911Z,28.97
2018-12-06T02:00:07.361Z,24.10
2018-12-06T02:02:35.636Z,30.00
2018-12-06T02:05:04.603Z,31.70
2018-12-06T02:07:32.961Z,36.13
2018-12-06T02:10:01.302Z,36.47
2018-12-06T02:12:29.724Z,33.17
2018-12-06T02:14:58.122Z,30.47
2018-12-06T02:17:26.502Z,33.07
2018-12-06T02:19:54.865Z,30.07
2018-12-06T02:22:23.157Z,33.40
2018-12-06T02:24:51.431Z,33.15
2018-12-06T02:27:19.722Z,34.60
2018-12-06T02:29:53.870Z,34.07
2018-12-06T02:32:22.174Z,38.83
2018-12-06T02:34:50.447Z,27.75
2018-12-06T02:37:18.720Z,37.63
2018-12-06T02:39:47.131Z,28.77
2018-12-06T02:42:15.401Z,29.43
2018-12-06T02:44:43.691Z,30.97
2018-12-06T02:47:11.981Z,30.77
2018-12-06T02:49:40.254Z,29.70
2018-12-06T02:52:08.535Z,30.00
2018-12-06T02:54:36.805Z,28.10
2018-12-06T02:57:05.080Z,31.53
2018-12-06T02:59:33.443Z,33.63
2018-12-06T03:02:01.710Z,40.20
2018-12-06T03:04:30.018Z,28.37
2018-12-06T03:06:58.292Z,32.77
2018-12-06T03:09:26.555Z,35.60
2018-12-06T03:11:54.843Z,35.27
2018-12-06T03:14:23.112Z,35.87
2018-12-06T03:16:51.400Z,30.40
2018-12-06T03:19:19.671Z,33.17
2018-12-06T03:21:47.938Z,37.60
2018-12-06T03:24:16.221Z,37.30
2018-12-06T03:26:44.502Z,39.43
2018-12-06T03:29:12.775Z,44.20
2018-12-06T03:31:41.041Z,42.03
2018-12-06T03:34:09.326Z,46.95
2018-12-06T03:36:37.586Z,45.73
2018-12-06T03:39:06.986Z,35.87
2018-12-06T03:41:35.493Z,43.60
2018-12-06T03:44:03.892Z,45.63
2018-12-06T03:46:32.157Z,37.53
2018-12-06T03:49:00.533Z,38.17
2018-12-06T03:51:28.832Z,35.57
2018-12-06T03:53:57.120Z,43.27
2018-12-06T03:56:25.394Z,33.63
2018-12-06T03:58:53.727Z,36.53
2018-12-06T04:01:22.019Z,40.57
2018-12-06T04:03:50.359Z,32.10
2018-12-06T04:06:18.642Z,36.77
2018-12-06T04:08:46.929Z,47.90
2018-12-06T04:11:15.198Z,40.27
2018-12-06T04:13:43.591Z,33.88
2018-12-06T04:16:11.845Z,29.27
2018-12-06T04:18:40.131Z,33.67
2018-12-06T04:21:08.395Z,31.80
2018-12-06T04:23:36.694Z,38.43
2018-12-06T04:26:05.069Z,30.50
2018-12-06T04:28:33.340Z,33.43
2018-12-06T04:31:01.617Z,25.60
2018-12-06T04:33:29.893Z,37.90
2018-12-06T04:35:58.151Z,31.47
2018-12-06T04:38:26.420Z,32.40
2018-12-06T04:40:54.733Z,41.10
2018-12-06T04:43:23.116Z,35.63
2018-12-06T04:45:51.391Z,47.37
2018-12-06T04:48:22.170Z,34.92
2018-12-06T04:50:49.966Z,37.83
2018-12-06T04:53:18.236Z,38.53
2018-12-06T04:55:46.632Z,44.73
2018-12-06T04:58:14.909Z,45.20
2018-12-06T05:00:43.182Z,48.03
2018-12-06T05:03:11.461Z,46.83
2018-12-06T05:05:39.725Z,40.30
2018-12-06T05:08:08.058Z,48.90
2018-12-06T05:10:36.344Z,48.70
2018-12-06T05:13:04.601Z,42.53
2018-12-06T05:15:32.872Z,44.97
2018-12-06T05:18:01.228Z,50.23
2018-12-06T05:20:29.480Z,51.93
2018-12-06T05:22:57.745Z,61.90
2018-12-06T05:25:26.048Z,40.87
2018-12-06T05:27:54.314Z,44.27
2018-12-06T05:30:22.639Z,53.20
2018-12-06T05:32:51.090Z,61.43
2018-12-06T05:35:19.362Z,45.93
2018-12-06T05:37:47.634Z,42.17
2018-12-06T05:40:15.873Z,44.60
2018-12-06T05:42:44.121Z,97.67
2018-12-06T05:45:12.388Z,49.83
2018-12-06T05:47:40.765Z,62.70
2018-12-06T05:50:09.418Z,58.40
2018-12-06T05:52:37.705Z,43.17
2018-12-06T05:55:06.329Z,47.70
2018-12-06T05:57:34.674Z,91.97
2018-12-06T06:00:03.232Z,71.90
2018-12-06T06:02:31.556Z,75.43
2018-12-06T06:05:00.009Z,47.23
2018-12-06T06:07:28.264Z,55.47
2018-12-06T06:09:56.648Z,55.63
2018-12-06T06:12:25.056Z,38.40
2018-12-06T06:14:53.293Z,57.47
2018-12-06T06:17:21.601Z,66.73
2018-12-06T06:19:49.882Z,48.00
2018-12-06T06:22:18.155Z,43.20
2018-12-06T06:24:46.425Z,42.33
2018-12-06T06:27:14.672Z,45.47
2018-12-06T06:29:42.937Z,39.03
2018-12-06T06:32:11.193Z,54.57
2018-12-06T06:34:39.533Z,37.60
2018-12-06T06:37:07.786Z,46.57
2018-12-06T06:39:36.029Z,49.90
2018-12-06T06:42:04.297Z,29.93
2018-12-06T06:44:32.852Z,51.87
2018-12-06T06:47:01.162Z,64.57
2018-12-06T06:49:29.423Z,82.50
2018-12-06T06:51:57.726Z,42.10
2018-12-06T06:54:26.053Z,48.15
2018-12-06T06:56:54.312Z,38.30
2018-12-06T06:59:25.995Z,39.70
2018-12-06T07:01:52.925Z,31.27
2018-12-06T07:04:21.177Z,39.58
2018-12-06T07:06:49.441Z,41.60
2018-12-06T07:09:17.686Z,53.57
2018-12-06T07:11:45.949Z,37.17
2018-12-06T07:14:14.193Z,52.17
2018-12-06T07:16:42.613Z,43.97
2018-12-06T07:19:10.869Z,51.13
2018-12-06T07:21:39.133Z,38.07
2018-12-06T07:24:07.378Z,49.13
2018-12-06T07:26:35.804Z,43.70
2018-12-06T07:29:04.181Z,41.90
2018-12-06T07:31:32.456Z,31.70
2018-12-06T07:34:00.708Z,54.57
2018-12-06T07:36:28.953Z,45.93
2018-12-06T07:38:57.307Z,24.27
2018-12-06T07:41:25.536Z,38.03
2018-12-06T07:43:53.815Z,36.73
2018-12-06T07:46:22.052Z,49.77
2018-12-06T07:48:50.297Z,40.47
2018-12-06T07:51:18.625Z,34.17
2018-12-06T07:53:46.869Z,29.20
2018-12-06T07:56:15.118Z,33.03
2018-12-06T07:58:43.381Z,29.27
2018-12-06T08:01:11.646Z,36.70
2018-12-06T08:03:39.894Z,35.83
2018-12-06T08:06:08.153Z,44.87
2018-12-06T08:08:36.406Z,31.43
2018-12-06T08:11:04.724Z,28.63
2018-12-06T08:13:32.994Z,40.93
2018-12-06T08:16:01.261Z,32.13
2018-12-06T08:18:29.508Z,51.07
2018-12-06T08:20:57.770Z,33.93
2018-12-06T08:23:26.008Z,38.90
2018-12-06T08:25:54.269Z,34.03
2018-12-06T08:28:22.520Z,32.17
2018-12-06T08:30:50.783Z,30.50
2018-12-06T08:33:19.025Z,33.77
2018-12-06T08:35:47.285Z,30.33
2018-12-06T08:38:15.537Z,31.20
2018-12-06T08:40:43.807Z,25.47
2018-12-06T08:43:12.048Z,38.03
2018-12-06T08:45:40.321Z,25.97
2018-12-06T08:48:08.573Z,26.70
2018-12-06T08:50:36.853Z,26.30
2018-12-06T08:53:05.101Z,26.17
2018-12-06T08:55:33.372Z,32.70
2018-12-06T08:58:01.636Z,29.80
2018-12-06T09:00:29.880Z,23.37
2018-12-06T09:02:58.448Z,34.73
2018-12-06T09:05:26.701Z,23.07
2018-12-06T09:07:56.128Z,30.17
2018-12-06T09:10:24.737Z,24.47
2018-12-06T09:12:52.986Z,31.57
2018-12-06T09:15:21.233Z,20.40
2018-12-06T09:17:49.492Z,29.80
2018-12-06T09:20:17.757Z,23.30
2018-12-06T09:22:45.998Z,21.50
2018-12-06T09:25:20.861Z,30.63
2018-12-06T09:27:44.597Z,23.43
2018-12-06T09:30:12.965Z,20.17
2018-12-06T09:32:41.485Z,24.73
2018-12-06T09:35:09.765Z,23.87
2018-12-06T09:37:38.023Z,24.10
2018-12-06T09:40:06.458Z,34.87
2018-12-06T09:42:34.846Z,20.70
2018-12-06T09:45:03.240Z,21.50
2018-12-06T09:47:31.489Z,31.40
2018-12-06T09:49:59.744Z,23.37
2018-12-06T09:52:28.005Z,22.00
2018-12-06T09:54:56.286Z,26.53
2018-12-06T09:57:24.537Z,26.80
2018-12-06T09:59:52.804Z,27.40
2018-12-06T10:02:21.045Z,36.90
2018-12-06T10:04:49.309Z,22.90
2018-12-06T10:07:17.572Z,28.90
2018-12-06T10:09:45.835Z,31.20
2018-12-06T10:12:14.153Z,32.80
2018-12-06T10:14:42.418Z,23.57
2018-12-06T10:17:10.673Z,43.37
2018-12-06T10:19:38.915Z,21.90
2018-12-06T10:22:07.179Z,21.37
2018-12-06T10:24:35.443Z,33.00
2018-12-06T10:27:03.705Z,23.33
2018-12-06T10:29:32.048Z,20.53
2018-12-06T10:32:00.289Z,27.50
2018-12-06T10:34:28.558Z,24.77
2018-12-06T10:36:56.811Z,27.53
2018-12-06T10:39:25.062Z,33.37
2018-12-06T10:41:53.428Z,34.20
2018-12-06T10:44:28.705Z,26.73
2018-12-06T10:46:56.965Z,28.23
2018-12-06T10:49:25.210Z,29.30
2018-12-06T10:51:53.617Z,26.60
2018-12-06T10:54:21.997Z,23.93
2018-12-06T10:56:50.316Z,22.90
2018-12-06T10:59:18.589Z,34.37
2018-12-06T11:01:46.895Z,18.70
2018-12-06T11:04:15.256Z,25.60
2018-12-06T11:06:43.505Z,22.93
2018-12-06T11:09:11.760Z,26.40
2018-12-06T11:11:40.022Z,31.57
2018-12-06T11:14:08.337Z,31.60
2018-12-06T11:16:36.586Z,20.83
2018-12-06T11:19:04.846Z,22.95
2018-12-06T11:21:33.089Z,17.50
2018-12-06T11:24:01.340Z,25.30
2018-12-06T11:26:29.613Z,23.90
2018-12-06T11:28:57.864Z,18.07
2018-12-06T11:31:26.116Z,25.33
2018-12-06T11:33:54.368Z,26.83
2018-12-06T11:36:22.613Z,24.73
2018-12-06T11:38:50.940Z,25.15
2018-12-06T11:41:19.242Z,27.60
2018-12-06T11:43:47.492Z,26.57
2018-12-06T11:46:15.750Z,27.63
2018-12-06T11:48:44.010Z,26.77
2018-12-06T11:51:12.257Z,28.70
2018-12-06T11:53:40.525Z,22.30
2018-12-06T11:56:08.765Z,27.87
2018-12-06T11:58:37.014Z,25.00
2018-12-06T12:01:05.339Z,24.03
2018-12-06T12:03:33.593Z,19.47
2018-12-06T12:06:01.934Z,23.67
2018-12-06T12:08:30.180Z,19.07
2018-12-06T12:10:58.433Z,25.93
2018-12-06T12:13:26.686Z,21.90
2018-12-06T12:15:54.925Z,25.53
2018-12-06T12:18:23.208Z,30.30
2018-12-06T12:20:51.456Z,27.67
2018-12-06T12:23:19.817Z,30.07
2018-12-06T12:25:48.124Z,30.37
2018-12-06T12:28:16.400Z,28.00
2018-12-06T12:30:44.645Z,36.53
2018-12-06T12:33:12.900Z,27.60
2018-12-06T12:35:41.332Z,23.13
2018-12-06T12:38:09.646Z,23.00
2018-12-06T12:40:37.897Z,20.27
2018-12-06T12:43:06.169Z,26.50
2018-12-06T12:45:34.415Z,25.33
2018-12-06T12:48:02.684Z,31.77
2018-12-06T12:50:30.982Z,19.77
2018-12-06T12:53:00.090Z,23.22
2018-12-06T12:55:28.353Z,27.37
2018-12-06T12:57:56.605Z,22.23
2018-12-06T13:00:24.854Z,23.33
2018-12-06T13:02:53.143Z,21.57
2018-12-06T13:05:21.385Z,21.30
2018-12-06T13:07:49.628Z,25.97
2018-12-06T13:10:17.890Z,31.43
2018-12-06T13:12:46.247Z,36.83
2018-12-06T13:15:14.489Z,29.50
2018-12-06T13:17:42.746Z,26.47
2018-12-06T13:20:11.135Z,31.00
2018-12-06T13:22:39.372Z,23.60
2018-12-06T13:25:07.746Z,32.33
2018-12-06T13:27:36.009Z,30.13
2018-12-06T13:30:05.670Z,18.13
2018-12-06T13:32:33.938Z,17.60
2018-12-06T13:35:02.185Z,19.27
2018-12-06T13:37:30.424Z,18.60
2018-12-06T13:39:58.685Z,20.57
2018-12-06T13:42:27.054Z,21.73
2018-12-06T13:44:55.301Z,21.67
2018-12-06T13:47:23.570Z,21.90
2018-12-06T13:49:51.897Z,18.60
2018-12-06T13:52:20.206Z,19.27
2018-12-06T13:54:48.476Z,18.80
2018-12-06T13:57:19.520Z,16.40
2018-12-06T13:59:46.979Z,22.10
2018-12-06T14:02:15.240Z,17.03
2018-12-06T14:04:43.478Z,19.50
2018-12-06T14:07:11.738Z,23.37
2018-12-06T14:09:39.991Z,19.47
2018-12-06T14:12:08.241Z,19.50
2018-12-06T14:14:36.504Z,24.30
2018-12-06T14:17:04.753Z,18.50
2018-12-06T14:19:33.023Z,28.73
2018-12-06T14:22:01.284Z,18.03
2018-12-06T14:24:29.651Z,28.60
2018-12-06T14:26:57.893Z,22.37
2018-12-06T14:29:26.172Z,17.30
2018-12-06T14:31:54.514Z,14.33
2018-12-06T14:34:22.745Z,27.60
2018-12-06T14:37:01.545Z,15.57
2018-12-06T14:39:21.265Z,19.23
2018-12-06T14:41:49.577Z,14.53
2018-12-06T14:44:17.857Z,19.43
2018-12-06T14:46:46.114Z,22.70
2018-12-06T14:49:14.378Z,16.67
2018-12-06T14:51:42.633Z,14.50
2018-12-06T14:54:10.881Z,18.03
2018-12-06T14:56:39.136Z,12.87
2018-12-06T14:59:07.411Z,14.33
2018-12-06T15:01:35.665Z,14.40
2018-12-06T15:04:04.029Z,20.63
2018-12-06T15:06:37.506Z,17.77
2018-12-06T15:09:02.738Z,19.37
2018-12-06T15:11:30.995Z,26.60
2018-12-06T15:13:59.319Z,21.33
2018-12-06T15:16:27.566Z,18.20
2018-12-06T15:18:55.877Z,20.77
2018-12-06T15:21:24.119Z,16.50
2018-12-06T15:23:52.380Z,17.00
2018-12-06T15:26:20.682Z,14.03
2018-12-06T15:28:48.930Z,18.50
2018-12-06T15:31:17.193Z,13.23
2018-12-06T15:33:45.449Z,18.43
2018-12-06T15:36:13.712Z,17.80
2018-12-06T15:41:16.553Z,17.33
2018-12-06T15:43:44.824Z,19.37
2018-12-06T15:46:13.082Z,21.57
2018-12-06T15:48:41.320Z,17.80
2018-12-06T15:51:09.617Z,20.87
2018-12-06T15:53:37.882Z,25.40
2018-12-06T15:56:06.148Z,24.23
2018-12-06T15:58:34.454Z,15.37
2018-12-06T16:01:02.802Z,19.70
2018-12-06T16:03:31.058Z,14.73
2018-12-06T16:05:59.304Z,30.93
2018-12-06T16:08:27.629Z,27.50
2018-12-06T16:10:55.881Z,18.57
2018-12-06T16:13:24.154Z,17.23
2018-12-06T16:15:52.498Z,17.20
2018-12-06T16:18:20.754Z,16.13
2018-12-06T16:20:49.073Z,22.93
2018-12-06T16:23:17.322Z,20.20
2018-12-06T16:25:45.714Z,21.27
2018-12-06T16:28:14.018Z,20.50
2018-12-06T16:30:42.261Z,20.70
2018-12-06T16:33:10.517Z,29.53
2018-12-06T16:35:38.777Z,16.30
2018-12-06T16:38:07.142Z,17.43
2018-12-06T16:40:35.482Z,23.20
2018-12-06T16:43:03.902Z,20.10
2018-12-06T16:45:32.219Z,21.70
2018-12-06T16:48:00.507Z,30.63
2018-12-06T16:50:28.746Z,28.80
2018-12-06T16:52:57.037Z,34.57
2018-12-06T16:55:25.308Z,38.20
2018-12-06T16:57:53.566Z,21.80
2018-12-06T17:00:21.878Z,18.77
2018-12-06T17:02:50.218Z,25.73
2018-12-06T17:05:18.534Z,18.33
2018-12-06T17:07:46.843Z,19.47
2018-12-06T17:10:15.158Z,20.90
2018-12-06T17:12:43.500Z,12.30
2018-12-06T17:15:11.799Z,24.10
2018-12-06T17:17:40.111Z,16.37
2018-12-06T17:20:08.608Z,19.87
2018-12-06T17:22:37.040Z,15.50
2018-12-06T17:25:05.965Z,19.62
2018-12-06T17:27:34.310Z,21.63
2018-12-06T17:30:02.698Z,19.90
2018-12-06T17:32:31.299Z,13.10
2018-12-06T17:34:59.614Z,19.80
2018-12-06T17:37:27.891Z,17.63
2018-12-06T17:39:56.219Z,14.10
2018-12-06T17:42:24.551Z,24.10
2018-12-06T17:44:52.825Z,17.27
2018-12-06T17:47:21.108Z,18.83
2018-12-06T17:49:49.369Z,21.40
2018-12-06T17:55:02.152Z,19.00
2018-12-06T17:57:30.397Z,21.07
2018-12-06T17:59:58.709Z,16.67
2018-12-06T18:02:27.016Z,13.97
2018-12-06T18:04:55.330Z,18.47
2018-12-06T18:07:23.658Z,24.27
2018-12-06T18:09:51.932Z,17.03
2018-12-06T18:12:20.220Z,19.80
2018-12-06T18:14:48.493Z,19.65
2018-12-06T18:17:16.761Z,12.03
2018-12-06T18:19:45.050Z,24.33
2018-12-06T18:22:13.317Z,16.83
2018-12-06T18:24:41.572Z,15.98
2018-12-06T18:27:09.882Z,20.17
2018-12-06T18:29:38.139Z,13.90
2018-12-06T18:32:06.438Z,13.50
2018-12-06T18:34:34.693Z,21.52
2018-12-06T18:37:02.940Z,13.13
2018-12-06T18:39:31.246Z,18.97
2018-12-06T18:41:59.495Z,15.63
2018-12-06T18:44:27.797Z,18.97
2018-12-06T18:46:56.185Z,17.03
2018-12-06T18:49:24.439Z,19.50
2018-12-06T18:51:52.731Z,14.30
2018-12-06T18:54:21.213Z,17.70
2018-12-06T18:56:49.521Z,17.30
2018-12-06T18:59:17.882Z,13.78
2018-12-06T19:01:46.337Z,16.43
2018-12-06T19:04:14.763Z,21.63
2018-12-06T19:06:45.075Z,12.20
2018-12-06T19:09:13.442Z,15.50
2018-12-06T19:11:41.756Z,14.77
2018-12-06T19:14:10.048Z,24.23
2018-12-06T19:16:38.385Z,13.67
2018-12-06T19:19:07.061Z,11.80
2018-12-06T19:21:35.387Z,26.50
2018-12-06T19:24:03.778Z,18.83
2018-12-06T19:26:32.310Z,19.70
2018-12-06T19:29:00.750Z,17.00
2018-12-06T19:31:29.241Z,11.80
2018-12-06T19:33:57.874Z,18.77
2018-12-06T19:36:26.884Z,17.90
2018-12-06T19:38:55.809Z,15.47
2018-12-06T19:41:25.573Z,25.03
2018-12-06T19:43:54.916Z,20.20
2018-12-06T19:46:25.064Z,20.43
2018-12-06T19:48:55.307Z,24.53
2018-12-06T19:51:24.893Z,22.03
2018-12-06T19:53:54.684Z,18.43
2018-12-06T19:56:24.934Z,17.57
2018-12-06T19:58:55.059Z,25.37
2018-12-06T20:01:24.875Z,17.53
2018-12-06T20:03:54.950Z,17.97
2018-12-06T20:09:10.960Z,23.00
2018-12-06T20:11:40.809Z,16.87
2018-12-06T20:14:10.854Z,31.67
2018-12-06T20:16:40.503Z,29.80
2018-12-06T20:19:10.150Z,15.63
2018-12-06T20:21:40.087Z,24.07
2018-12-06T20:24:10.195Z,34.10
2018-12-06T20:26:39.984Z,27.47
2018-12-06T20:29:10.106Z,24.00
2018-12-06T20:31:39.802Z,21.33
2018-12-06T20:34:09.837Z,30.70
2018-12-06T20:36:39.855Z,16.67
2018-12-06T20:39:09.770Z,24.67
2018-12-06T20:41:39.889Z,17.00
2018-12-06T20:44:09.635Z,27.58
2018-12-06T20:46:39.520Z,26.00
2018-12-06T20:49:09.174Z,24.70
2018-12-06T20:51:38.981Z,19.13
2018-12-06T20:54:08.955Z,21.37
2018-12-06T20:56:38.866Z,13.53
2018-12-06T20:59:08.520Z,16.70
2018-12-06T21:01:38.435Z,14.03
2018-12-06T21:04:08.314Z,21.20
2018-12-06T21:06:38.414Z,18.73
2018-12-06T21:09:08.332Z,15.10
2018-12-06T21:11:38.085Z,13.50
2018-12-06T21:14:07.155Z,22.07
2018-12-06T21:16:35.926Z,18.03
2018-12-06T21:19:04.817Z,19.62
2018-12-06T21:21:33.503Z,30.50
2018-12-06T21:24:01.882Z,24.07
2018-12-06T21:26:30.274Z,19.10
2018-12-06T21:28:58.794Z,19.17
2018-12-06T21:31:27.328Z,17.37
2018-12-06T21:33:55.766Z,13.90
2018-12-06T21:36:24.062Z,14.30
2018-12-06T21:38:52.362Z,14.60
2018-12-06T21:41:20.741Z,13.23
2018-12-06T21:43:49.006Z,15.13
2018-12-06T21:46:17.316Z,15.33
2018-12-06T21:48:45.632Z,17.33
2018-12-06T21:51:13.981Z,15.07
2018-12-06T21:53:42.278Z,13.67
2018-12-06T21:56:10.609Z,17.00
2018-12-06T21:58:38.878Z,13.93
2018-12-06T22:01:07.215Z,15.73
2018-12-06T22:03:35.473Z,13.77
2018-12-06T22:06:03.822Z,22.83
2018-12-06T22:08:32.105Z,15.60
2018-12-06T22:11:00.474Z,20.67
2018-12-06T22:13:28.755Z,12.40
2018-12-06T22:15:57.031Z,14.90
2018-12-06T22:18:25.310Z,17.10
2018-12-06T22:20:53.592Z,13.13
2018-12-06T22:23:21.881Z,15.53
2018-12-06T22:25:50.125Z,14.67
2018-12-06T22:28:18.425Z,13.03
2018-12-06T22:30:46.793Z,16.70
2018-12-06T22:33:15.073Z,11.57
2018-12-06T22:35:43.397Z,14.77
2018-12-06T22:38:11.732Z,18.23
2018-12-06T22:40:40.001Z,11.10
2018-12-06T22:43:08.278Z,12.57
2018-12-06T22:45:57.205Z,16.50
2018-12-06T22:48:25.524Z,16.30
2018-12-06T22:50:53.902Z,11.90
2018-12-06T22:53:22.237Z,10.57
2018-12-06T22:55:50.561Z,19.47
2018-12-06T22:58:18.813Z,14.40
2018-12-06T23:00:50.785Z,15.70
2018-12-06T23:03:19.102Z,14.20
2018-12-06T23:05:47.345Z,9.33
2018-12-06T23:08:15.728Z,9.20
2018-12-06T23:10:44.008Z,11.77
2018-12-06T23:13:12.377Z,7.50
2018-12-06T23:15:40.661Z,11.57
2018-12-06T23:18:08.915Z,14.50
2018-12-06T23:20:37.178Z,13.83
2018-12-06T23:23:05.548Z,12.83
2018-12-06T23:25:33.873Z,26.90
2018-12-06T23:28:02.116Z,11.17
2018-12-06T23:30:30.564Z,10.87
2018-12-06T23:32:58.914Z,10.07
2018-12-06T23:35:27.277Z,14.03
2018-12-06T23:37:55.550Z,10.80
2018-12-06T23:40:23.822Z,12.00
2018-12-06T23:42:52.109Z,13.70
2018-12-06T23:45:20.365Z,17.80
2018-12-06T23:47:48.670Z,15.47
2018-12-06T23:50:17.034Z,7.90
2018-12-06T23:52:45.289Z,10.23
2018-12-06T23:55:13.606Z,11.97
2018-12-06T23:57:41.884Z,16.40
